Latest Weather Observations for Yarram Airport

IDV60801

Issued at 6:02 pm EST Sunday 15 September 2019 (issued every 10 minutes, with the page automatically refreshed every 10 minutes)

About weather observations | Map of weather stations | Latest weather observations for VIC | Other Formats
Station Details ID: 085151 Name: YARRAM AIRPORT Lat: -38.56 Lon: 146.75 Height: 17.9 m
Data from the previous 72 hours. | See also: Recent months at Yarram Airport
Date/Time
EST
Temp
°C
App
Temp
°C
Dew
Point
°C
Rel
Hum
%
Delta-T
°C
Wind Press
QNH
hPa
Press
MSL
hPa
Rain since
9am
mm
Dir  Spd
km/h
Gust
km/h
Spd
kts
Gust
kts
15/05:30pm 15.8 10.9 11.4 75 2.4 NW 28 46 15 25 1013.6 1013.6 0.2
15/05:06pm 16.9 11.1 10.7 67 3.3 WNW 32 50 17 27 1013.7 1013.7 0.0
15/05:00pm 17.3 12.2 10.7 65 3.5 WNW 28 37 15 20 1013.6 1013.6 0.0
15/04:30pm 17.4 12.0 10.8 65 3.5 NW 30 43 16 23 1012.2 1012.2 0.0
15/04:00pm 18.9 13.3 10.2 57 4.7 WNW 30 56 16 30 1011.8 1011.8 0.0
15/03:30pm 20.2 13.5 9.5 50 5.7 NW 35 54 19 29 1011.8 1011.8 0.0
15/03:24pm 20.4 14.2 9.3 49 5.9 NW 32 50 17 27 1011.6 1011.6 0.0
15/03:00pm 21.6 17.3 11.9 54 5.4 WNW 26 39 14 21 1011.8 1011.8 0.0
15/02:30pm 19.6 16.1 12.1 62 4.2 W 22 33 12 18 1013.0 1013.0 0.0
15/02:00pm 21.2 18.0 11.8 55 5.2 W 20 32 11 17 1012.7 1012.7 0.0
15/01:30pm 22.2 19.6 13.3 57 5.1 WNW 19 24 10 13 1012.8 1012.8 0.0
15/01:00pm 21.6 16.4 11.6 53 5.6 WNW 30 46 16 25 1013.2 1013.2 0.0
15/12:35pm 21.7 16.9 11.7 53 5.6 NW 28 46 15 25 1013.2 1013.2 0.0
15/12:30pm 22.3 18.9 11.4 50 6.1 NW 20 33 11 18 1013.2 1013.2 0.0
15/12:00pm 23.0 18.6 12.9 53 5.8 NW 28 41 15 22 1013.5 1013.5 0.0
15/11:30am 22.0 18.2 12.3 54 5.5 WNW 24 35 13 19 1014.0 1014.0 0.0
15/11:00am 21.3 16.1 11.6 54 5.4 WNW 30 39 16 21 1014.6 1014.6 0.0
15/10:30am 19.9 15.9 11.9 60 4.4 NW 24 35 13 19 1015.1 1015.1 0.0
15/10:00am 20.7 15.7 10.8 53 5.4 WNW 28 39 15 21 1015.7 1015.7 0.0
15/09:30am 20.0 15.2 11.8 59 4.6 WNW 28 39 15 21 1015.9 1015.9 0.0
15/09:29am 20.0 15.5 11.5 58 4.7 WNW 26 39 14 21 1016.0 1016.0 0.0
15/09:00am 18.9 17.0 11.7 63 4.0 WNW 13 19 7 10 1016.2 1016.2 0.2
15/08:30am 17.2 13.8 11.2 68 3.2 WNW 20 26 11 14 1016.4 1016.4 0.2
15/08:00am 15.4 12.7 10.4 72 2.6 WSW 15 20 8 11 1016.5 1016.5 0.2
15/07:30am 14.9 11.6 9.7 71 2.7 WNW 17 28 9 15 1016.4 1016.4 0.2
15/07:00am 15.6 9.7 9.1 65 3.3 WNW 30 43 16 23 1016.4 1016.4 0.2
15/06:54am 15.5 11.2 9.4 67 3.2 WNW 22 43 12 23 1016.3 1016.3 0.2
15/06:30am 13.4 11.6 9.6 78 1.9 NW 9 15 5 8 1016.4 1016.4 0.2
15/06:00am 13.1 11.5 10.3 83 1.4 SW 9 13 5 7 1016.7 1016.7 0.2
15/05:30am 14.2 9.7 10.2 77 2.1 NW 24 33 13 18 1016.9 1016.9 0.0
15/05:00am 15.0 9.1 8.9 67 3.1 WNW 30 44 16 24 1016.6 1016.6 0.0
15/04:30am 15.1 10.9 7.6 61 3.7 W 19 28 10 15 1016.9 1016.9 0.0
15/04:00am 14.2 11.2 7.9 66 3.1 WNW 13 17 7 9 1016.9 1016.9 0.0
15/03:30am 14.0 10.1 7.3 64 3.3 NW 17 24 9 13 1016.9 1016.9 0.0
15/03:00am 14.4 9.0 6.5 59 3.8 NW 24 30 13 16 1017.2 1017.2 0.0
15/02:30am 14.1 9.5 6.7 61 3.6 WNW 20 26 11 14 1017.5 1017.5 0.0
15/02:00am 13.7 9.7 6.8 63 3.3 NW 17 24 9 13 1017.9 1017.9 0.0
15/01:30am 11.3 7.9 5.8 69 2.6 WNW 13 35 7 19 1018.4 1018.4 0.0
15/01:00am 10.0 8.1 9.1 94 0.4 N 9 13 5 7 1018.9 1019.0 0.0
15/12:30am 9.7 8.1 8.6 93 0.5 N 7 9 4 5 1019.3 1019.4 0.0
15/12:00am 9.7 8.1 8.6 93 0.5 NNW 7 9 4 5 1019.9 1020.0 0.0
 
Date/Time
EST
Temp
°C
App
Temp
°C
Dew
Point
°C
Rel
Hum
%
Delta-T
°C
Wind Press
QNH
hPa
Press
MSL
hPa
Rain since
9am
mm
Dir  Spd
km/h
Gust
km/h
Spd
kts
Gust
kts
14/11:30pm 9.6 9.3 8.8 95 0.4 CALM 0 0 0 0 1020.1 1020.2 0.0
14/11:00pm 9.2 7.2 8.6 96 0.3 SSW 9 13 5 7 1020.1 1020.2 0.0
14/10:30pm 8.7 6.9 8.1 96 0.3 NE 7 13 4 7 1019.4 1019.5 0.0
14/10:00pm 8.0 5.4 7.6 97 0.2 NNE 11 13 6 7 1019.5 1019.6 0.0
14/09:30pm 6.7 4.7 6.1 96 0.3 E 6 9 3 5 1020.1 1020.2 0.0
14/09:00pm 5.2 2.8 4.3 94 0.4 SSE 6 11 3 6 1020.1 1020.2 0.0
14/08:30pm 6.1 3.7 5.1 93 0.4 ENE 7 15 4 8 1020.4 1020.5 0.0
14/08:00pm 7.8 4.2 6.9 94 0.4 NE 15 17 8 9 1020.3 1020.4 0.0
14/07:30pm 7.0 4.3 5.8 92 0.5 NE 9 13 5 7 1020.7 1020.8 0.0
14/07:00pm 8.2 6.0 6.3 88 0.9 N 7 9 4 5 1021.0 1021.1 0.0
14/06:30pm 10.0 6.4 8.3 89 0.8 WSW 17 19 9 10 1021.2 1021.3 0.0
14/06:00pm 11.3 7.3 9.0 86 1.1 SW 20 26 11 14 1021.2 1021.3 0.0
14/05:30pm 12.3 8.4 9.5 83 1.4 SW 20 24 11 13 1020.9 1021.0 0.0
14/05:00pm 13.8 9.7 10.0 78 2.0 SW 22 28 12 15 1021.1 1021.2 0.0
14/04:30pm 14.8 10.4 10.4 75 2.3 SW 24 30 13 16 1021.3 1021.4 0.0
14/04:00pm 15.6 11.6 10.4 71 2.7 SW 22 28 12 15 1021.4 1021.5 0.0
14/03:30pm 15.8 10.7 10.6 71 2.8 SW 28 35 15 19 1021.5 1021.6 0.0
14/03:00pm 16.5 11.8 10.8 69 3.0 SW 26 32 14 17 1021.8 1021.9 0.0
14/02:30pm 16.6 12.4 9.8 64 3.6 WSW 22 30 12 16 1021.7 1021.8 0.0
14/02:00pm 16.5 11.6 8.5 59 4.1 WSW 24 35 13 19 1022.1 1022.2 0.0
14/01:30pm 16.1 11.2 8.6 61 3.8 WSW 24 33 13 18 1022.4 1022.5 0.0
14/01:00pm 16.1 10.5 8.8 62 3.7 WSW 28 35 15 19 1022.8 1022.9 0.0
14/12:30pm 15.4 10.5 8.4 63 3.5 W 24 33 13 18 1023.2 1023.3 0.0
14/12:00pm 15.3 9.5 7.8 61 3.7 W 28 35 15 19 1023.7 1023.8 0.0
14/11:30am 15.1 9.7 8.1 63 3.5 WSW 26 39 14 21 1024.1 1024.2 0.0
14/11:00am 14.7 8.6 8.4 66 3.2 WSW 30 39 16 21 1024.5 1024.6 0.0
14/10:30am 14.2 8.9 8.4 68 2.9 WSW 26 35 14 19 1024.7 1024.8 0.0
14/10:00am 13.8 8.9 8.4 70 2.7 WSW 24 33 13 18 1024.9 1025.0 0.0
14/09:30am 12.4 7.4 7.9 74 2.2 WSW 24 33 13 18 1025.0 1025.1 0.0
14/09:00am 12.4 8.2 8.3 76 2.0 WSW 20 32 11 17 1024.8 1024.9 0.0
14/08:30am 13.1 9.8 9.4 78 1.9 W 17 24 9 13 1025.0 1025.1 0.0
14/08:00am 11.9 9.4 8.0 77 1.9 WNW 11 20 6 11 1024.9 1025.0 0.0
14/07:30am 11.1 8.9 7.8 80 1.6 NW 9 20 5 11 1025.0 1025.1 0.0
14/07:00am 10.3 4.3 7.0 80 1.6 W 28 35 15 19 1024.2 1024.3 0.0
14/06:30am 10.2 6.7 7.1 81 1.5 WNW 15 20 8 11 1024.5 1024.6 0.0
14/06:00am 9.6 5.0 6.7 82 1.3 W 20 30 11 16 1023.9 1024.0 0.0
14/05:30am 10.1 5.6 7.0 81 1.5 W 20 26 11 14 1023.7 1023.8 0.0
14/05:00am 9.6 5.5 6.3 80 1.5 W 17 26 9 14 1023.4 1023.5 0.0
14/04:30am 9.8 4.1 6.7 81 1.5 W 26 33 14 18 1022.6 1022.7 0.0
14/04:00am 10.1 3.4 7.3 83 1.3 W 32 43 17 23 1022.4 1022.5 0.0
14/03:30am 10.4 5.2 7.3 81 1.5 W 24 32 13 17 1022.8 1022.9 0.0
14/03:00am 10.4 6.5 7.3 81 1.5 W 17 24 9 13 1022.7 1022.8 0.0
14/02:30am 10.1 6.6 7.0 81 1.5 W 15 24 8 13 1022.6 1022.7 0.0
14/02:00am 10.3 4.3 7.2 81 1.5 W 28 37 15 20 1022.1 1022.2 0.0
14/01:30am 10.8 3.1 7.3 79 1.7 W 37 50 20 27 1022.0 1022.1 0.0
14/01:00am 10.7 5.2 7.4 80 1.6 WSW 26 35 14 19 1022.5 1022.6 0.0
14/12:30am 11.2 5.3 7.7 79 1.7 WSW 28 37 15 20 1022.7 1022.8 0.0
14/12:00am 11.6 5.0 7.9 78 1.8 WSW 32 46 17 25 1022.4 1022.5 0.0
 
Date/Time
EST
Temp
°C
App
Temp
°C
Dew
Point
°C
Rel
Hum
%
Delta-T
°C
Wind Press
QNH
hPa
Press
MSL
hPa
Rain since
9am
mm
Dir  Spd
km/h
Gust
km/h
Spd
kts
Gust
kts
13/11:44pm 11.6 5.3 7.5 76 2.0 W 30 48 16 26 1022.1 1022.2 0.0
13/11:30pm 11.8 4.5 7.3 74 2.2 W 35 48 19 26 1021.8 1021.9 0.0
13/11:02pm 11.8 4.6 7.5 75 2.1 W 35 54 19 29 1021.4 1021.5 0.0
13/11:00pm 11.8 4.2 7.7 76 2.0 W 37 54 20 29 1021.4 1021.5 0.0
13/10:57pm 11.9 4.7 7.6 75 2.1 W 35 54 19 29 1021.4 1021.5 0.0
13/10:30pm 11.9 4.1 8.2 78 1.8 W 39 54 21 29 1021.2 1021.3 0.0
13/10:00pm 12.2 3.6 8.3 77 1.9 W 43 57 23 31 1021.2 1021.3 0.0
13/09:30pm 12.0 5.0 8.5 79 1.7 W 35 46 19 25 1021.4 1021.5 0.0
13/09:00pm 12.2 5.7 8.9 80 1.6 W 33 50 18 27 1021.5 1021.6 0.0
13/08:30pm 13.1 7.2 9.0 76 2.1 W 30 44 16 24 1021.3 1021.4 0.0
13/08:00pm 13.8 8.2 7.3 65 3.2 W 26 39 14 21 1020.9 1021.0 0.0
13/07:30pm 13.7 6.8 6.6 62 3.4 W 32 43 17 23 1020.4 1020.5 0.0
13/07:00pm 14.4 8.5 5.7 56 4.1 W 26 39 14 21 1019.9 1020.0 0.0
13/06:37pm 14.7 8.4 5.5 54 4.4 WSW 28 46 15 25 1019.9 1020.0 0.0
13/06:30pm 14.2 9.0 5.3 55 4.2 WSW 22 30 12 16 1019.7 1019.8 0.0
13/06:00pm 14.3 8.5 4.3 51 4.6 W 24 37 13 20 1019.2 1019.3 0.0
13/05:30pm 14.0 7.8 4.3 52 4.5 W 26 41 14 22 1019.1 1019.2 0.0
13/05:00pm 14.5 8.6 3.9 49 4.8 W 24 44 13 24 1019.0 1019.1 0.0
13/04:30pm 14.4 11.1 6.5 59 3.8 W 13 19 7 10 1019.2 1019.3 0.0
13/04:00pm 14.3 10.9 7.6 64 3.3 WNW 15 20 8 11 1019.1 1019.2 0.0
13/03:30pm 14.1 10.8 7.9 66 3.1 WSW 15 20 8 11 1019.5 1019.6 0.0
13/03:00pm 13.9 11.1 8.5 70 2.7 WSW 13 19 7 10 1019.7 1019.8 0.0
13/02:30pm 13.9 10.3 8.5 70 2.7 W 17 20 9 11 1019.6 1019.7 0.0
13/02:00pm 14.3 10.1 7.4 63 3.4 W 19 26 10 14 1020.4 1020.5 0.0
13/01:30pm 14.5 11.9 9.3 71 2.7 SW 13 20 7 11 1020.8 1020.9 0.0
13/01:00pm 14.3 10.5 7.6 64 3.3 SW 17 24 9 13 1020.8 1020.9 0.0
13/12:30pm 13.9 10.7 7.0 63 3.4 WSW 13 19 7 10 1021.1 1021.2 0.0
13/12:00pm 13.5 9.6 7.3 66 3.0 WSW 17 24 9 13 1021.4 1021.5 0.0
13/11:30am 13.2 9.3 7.2 67 2.9 WSW 17 22 9 12 1021.7 1021.8 0.0
13/11:00am 12.7 9.3 7.6 71 2.5 WSW 15 20 8 11 1022.1 1022.2 0.0
13/10:30am 12.9 9.7 6.7 66 3.0 W 13 22 7 12 1022.2 1022.3 0.0
13/10:00am 12.3 8.9 6.1 66 2.9 WSW 13 20 7 11 1023.1 1023.2 0.0
13/09:30am 12.1 8.5 6.8 70 2.5 W 15 20 8 11 1023.2 1023.3 0.0
13/09:00am 11.5 7.5 6.6 72 2.3 W 17 20 9 11 1023.7 1023.8 0.0
13/08:30am 10.8 7.1 6.4 74 2.1 WNW 15 19 8 10 1023.5 1023.6 0.0
13/08:00am 9.9 6.6 6.3 78 1.7 WNW 13 17 7 9 1023.3 1023.4 0.0
13/07:30am 9.7 5.5 5.9 77 1.7 W 17 20 9 11 1023.4 1023.5 0.0
13/07:00am 9.0 5.6 5.7 80 1.5 WNW 13 15 7 8 1023.1 1023.2 0.0
13/06:30am 8.9 6.2 5.5 79 1.5 WNW 9 13 5 7 1023.1 1023.2 0.0
13/06:00am 9.2 6.1 5.6 78 1.6 WNW 11 15 6 8 1023.0 1023.1 0.0
13/05:30am 9.9 4.7 5.3 73 2.1 W 22 32 12 17 1023.0 1023.1 0.0
13/05:00am 9.8 5.6 5.8 76 1.8 W 17 24 9 13 1022.9 1023.0 0.0
13/04:30am 10.0 4.8 5.6 74 2.0 W 22 32 12 17 1022.9 1023.0 0.0
13/04:00am 9.8 5.0 5.8 76 1.8 W 20 30 11 16 1023.1 1023.2 0.0
13/03:30am 9.9 5.1 5.7 75 1.9 W 20 26 11 14 1022.7 1022.8 0.0
13/03:00am 10.1 4.1 5.3 72 2.2 W 26 33 14 18 1022.7 1022.8 0.0
13/02:30am 9.9 6.1 5.9 76 1.8 W 15 22 8 12 1022.9 1023.0 0.0
13/02:00am 9.9 5.1 5.7 75 1.9 W 20 26 11 14 1022.8 1022.9 0.0
13/01:30am 9.7 4.6 5.9 77 1.7 W 22 30 12 16 1022.7 1022.8 0.0
13/01:00am 9.8 5.0 5.8 76 1.8 W 20 26 11 14 1022.8 1022.9 0.0
13/12:30am 10.0 5.5 6.0 76 1.8 W 19 30 10 16 1022.9 1023.0 0.0
13/12:00am 10.1 7.8 5.9 75 1.9 WNW 7 15 4 8 1022.9 1023.0 0.0
 
Date/Time
EST
Temp
°C
App
Temp
°C
Dew
Point
°C
Rel
Hum
%
Delta-T
°C
Wind Press
QNH
hPa
Press
MSL
hPa
Rain since
9am
mm
Dir  Spd
km/h
Gust
km/h
Spd
kts
Gust
kts
12/11:30pm 9.8 3.1 5.6 75 1.9 W 30 44 16 24 1022.2 1022.3 0.0
12/11:00pm 10.1 3.0 5.7 74 2.0 W 32 37 17 20 1022.2 1022.3 0.0
12/10:57pm 10.3 4.0 5.9 74 2.0 W 28 37 15 20 1022.3 1022.4 0.0
12/10:30pm 10.1 7.8 5.7 74 2.0 W 7 15 4 8 1022.5 1022.6 0.0
12/10:00pm 9.6 5.0 5.6 76 1.8 W 19 30 10 16 1022.3 1022.4 0.0
12/09:30pm 9.9 1.6 5.9 76 1.8 W 39 46 21 25 1021.4 1021.5 0.0
12/09:00pm 10.3 2.4 6.1 75 1.9 W 37 43 20 23 1021.5 1021.6 0.0
12/08:30pm 11.0 5.5 7.5 79 1.7 WSW 26 35 14 19 1021.6 1021.7 0.0
12/08:00pm 11.4 7.3 8.6 83 1.4 W 20 28 11 15 1021.4 1021.5 0.0
12/07:30pm 11.1 6.3 9.0 87 1.0 WSW 24 32 13 17 1021.0 1021.1 0.0
12/07:00pm 10.9 5.5 9.5 91 0.7 WSW 28 39 15 21 1020.4 1020.5 0.0
12/06:30pm 11.5 6.3 10.2 92 0.7 SW 28 37 15 20 1020.1 1020.2 0.0

Other formats

Comma delimited format used in spreadsheet applications
http://www.bom.gov.au/fwo/IDV60801/IDV60801.95890.axf

JavaScript Object Notation format (JSON) in row-major order
http://www.bom.gov.au/fwo/IDV60801/IDV60801.95890.json

Data quality

Most of these data are generated automatically and are frequently updated. Quality checks on data are not normally performed. It is possible for incorrect values to appear. Refer to information at About Latest Weather Observations and please check the disclaimer before using these data.